Time;durP1;ratioP1;P1;durP2;ratioP2;P2;SDS_P1;SDS_P2;PMS_P1;PMS_P2;Temp;Humidity;BMP_temperature;BMP_pressure;BME280_temperature;BME280_humidity;BME280_pressure;Samples;Min_cycle;Max_cycle;Signal;HPM_P1;HPM_P2
2021/11/16 00:02:07;;;;;;;;;;;;;;;21.44;55.07;102372.69;7281860;19;152528;-49
2021/11/16 00:04:35;;;;;;;;;;;;;;;21.40;54.91;102372.38;7285082;19;153934;-49
2021/11/16 00:07:05;;;;;;;;;;;;;;;21.37;54.73;102363.66;7285581;19;151977;-49
2021/11/16 00:09:32;;;;;;;;;;;;;;;21.39;54.66;102359.47;7283682;19;153045;-50
2021/11/16 00:11:59;;;;;;;;;;;;;;;21.37;54.71;102364.50;7282541;19;154095;-49
2021/11/16 00:14:29;;;;;;;;;;;;;;;21.35;55.16;102366.75;7282930;19;152266;-50
2021/11/16 00:16:56;;;;;;;;;;;;;;;21.35;54.69;102357.50;7289752;19;151904;-50
2021/11/16 00:19:24;;;;;;;;;;;;;;;21.35;54.79;102365.94;7284973;19;151932;-49
2021/11/16 00:21:52;;;;;;;;;;;;;;;21.28;55.29;102363.38;7283559;19;152366;-50
2021/11/16 00:24:22;;;;;;;;;;;;;;;21.28;55.38;102360.56;7283172;19;152368;-49
2021/11/16 00:26:49;;;;;;;;;;;;;;;21.20;54.85;102356.34;7285483;19;151628;-50
2021/11/16 00:29:16;;;;;;;;;;;;;;;21.19;54.99;102357.47;7284515;19;153071;-49
2021/11/16 00:31:43;;;;;;;;;;;;;;;21.15;55.42;102359.16;7281837;19;152438;-49
2021/11/16 00:34:10;;;;;;;;;;;;;;;21.14;55.25;102354.63;7282796;19;153496;-49
2021/11/16 00:36:37;;;;;;;;;;;;;;;21.16;55.43;102354.38;7283478;19;152079;-49
2021/11/16 00:39:04;;;;;;;;;;;;;;;21.14;55.05;102353.78;7290476;19;154091;-49
2021/11/16 00:41:31;;;;;;;;;;;;;;;21.15;55.50;102358.31;7284724;19;153118;-48
2021/11/16 00:43:58;;;;;;;;;;;;;;;21.16;55.80;102351.56;7282720;19;153187;-49
2021/11/16 00:46:25;;;;;;;;;;;;;;;21.11;55.79;102348.69;7284546;19;151881;-50
2021/11/16 00:48:54;;;;;;;;;;;;;;;21.08;55.78;102336.03;7283607;19;154104;-49
2021/11/16 00:51:22;;;;;;;;;;;;;;;21.10;56.06;102338.59;7278719;19;153747;-49
2021/11/16 00:53:49;;;;;;;;;;;;;;;21.14;54.59;102336.94;7284176;19;151694;-49
2021/11/16 00:56:16;;;;;;;;;;;;;;;21.01;49.68;102335.47;7284420;19;152687;-49
2021/11/16 00:58:43;;;;;;;;;;;;;;;20.74;45.50;102335.69;7281242;19;152553;-60
2021/11/16 01:01:10;;;;;;;;;;;;;;;20.73;47.00;102324.72;7288352;19;151987;-49
2021/11/16 01:03:37;;;;;;;;;;;;;;;20.82;49.60;102328.69;7282082;19;154021;-50
2021/11/16 01:06:04;;;;;;;;;;;;;;;20.92;51.12;102323.09;7281140;19;152238;-50
2021/11/16 01:08:31;;;;;;;;;;;;;;;20.92;51.08;102325.91;7274172;19;153178;-50
2021/11/16 01:10:59;;;;;;;;;;;;;;;20.90;51.29;102313.22;7281576;19;153482;-49
2021/11/16 01:13:26;;;;;;;;;;;;;;;20.89;51.64;102317.19;7283606;19;152119;-50
2021/11/16 01:15:54;;;;;;;;;;;;;;;20.88;51.66;102309.88;7282824;19;153476;-49
2021/11/16 01:18:22;;;;;;;;;;;;;;;20.85;52.19;102317.72;7276001;19;153350;-52
2021/11/16 01:20:49;;;;;;;;;;;;;;;20.85;52.19;102314.91;7287083;19;151902;-49
2021/11/16 01:23:18;;;;;;;;;;;;;;;20.84;52.02;102313.25;7278236;19;153455;-50
2021/11/16 01:25:45;;;;;;;;;;;;;;;20.81;52.35;102319.41;7283120;19;152392;-49
2021/11/16 01:28:16;;;;;;;;;;;;;;;20.78;53.11;102313.50;7280916;19;152987;-49
2021/11/16 01:30:46;;;;;;;;;;;;;;;20.77;53.24;102317.44;7279865;19;153651;-49
2021/11/16 01:33:18;;;;;;;;;;;;;;;20.76;53.21;102315.72;7279592;19;152223;-50
2021/11/16 01:35:46;;;;;;;;;;;;;;;20.74;53.65;102313.22;7282480;19;152642;-49
2021/11/16 01:38:16;;;;;;;;;;;;;;;20.70;53.66;102311.25;7279786;19;153425;-50
2021/11/16 01:40:44;;;;;;;;;;;;;;;20.71;53.56;102313.78;7280501;19;151924;-50
2021/11/16 01:43:11;;;;;;;;;;;;;;;20.71;54.19;102310.97;7286855;19;152249;-51
2021/11/16 01:45:58;;;;;;;;;;;;;;;20.68;54.11;102310.66;7283314;19;151927;-49
2021/11/16 01:48:25;;;;;;;;;;;;;;;20.70;54.15;102308.44;7287789;19;152569;-49
2021/11/16 01:50:52;;;;;;;;;;;;;;;20.67;54.24;102304.19;7288497;19;153315;-49
2021/11/16 01:53:20;;;;;;;;;;;;;;;20.65;54.55;102308.41;7287908;19;151749;-50
2021/11/16 01:55:47;;;;;;;;;;;;;;;20.69;54.41;102306.75;7288992;19;152828;-49
2021/11/16 01:58:14;;;;;;;;;;;;;;;20.66;54.80;102301.69;7285979;19;154159;-49
2021/11/16 02:00:43;;;;;;;;;;;;;;;20.62;54.99;102304.22;7286319;19;152155;-49
2021/11/16 02:03:11;;;;;;;;;;;;;;;20.64;54.83;102299.13;7286077;19;152751;-49
2021/11/16 02:05:39;;;;;;;;;;;;;;;20.66;54.95;102304.50;7294196;19;153307;-49
2021/11/16 02:08:07;;;;;;;;;;;;;;;20.62;55.43;102303.38;7288818;19;153618;-49
2021/11/16 02:10:34;;;;;;;;;;;;;;;20.60;55.22;102300.81;7288048;19;154019;-51
2021/11/16 02:13:01;;;;;;;;;;;;;;;20.61;55.26;102299.72;7286830;19;151924;-50
2021/11/16 02:15:28;;;;;;;;;;;;;;;20.62;55.09;102300.56;7289344;19;153536;-50
2021/11/16 02:17:55;;;;;;;;;;;;;;;20.58;55.40;102303.03;7287650;19;154517;-50
2021/11/16 02:20:22;;;;;;;;;;;;;;;20.59;55.46;102296.31;7286577;19;151926;-49
2021/11/16 02:22:49;;;;;;;;;;;;;;;20.57;55.57;102289.31;7285852;19;153089;-49
2021/11/16 02:25:17;;;;;;;;;;;;;;;20.56;55.60;102287.59;7287738;19;153398;-49
2021/11/16 02:27:46;;;;;;;;;;;;;;;20.55;55.83;102285.91;7296332;19;151673;-49
2021/11/16 02:30:14;;;;;;;;;;;;;;;20.53;55.71;102294.63;7287130;19;153615;-49
2021/11/16 02:32:43;;;;;;;;;;;;;;;20.54;56.32;102292.63;7287844;19;151869;-51
2021/11/16 02:35:10;;;;;;;;;;;;;;;20.53;56.20;102291.81;7288543;19;152704;-49
2021/11/16 02:37:37;;;;;;;;;;;;;;;20.51;55.99;102296.84;7285004;19;153651;-49
2021/11/16 02:40:05;;;;;;;;;;;;;;;20.49;56.00;102293.47;7288659;19;151564;-49
2021/11/16 02:42:33;;;;;;;;;;;;;;;20.49;56.28;102287.84;7287057;19;152667;-49
2021/11/16 02:45:00;;;;;;;;;;;;;;;20.50;56.31;102278.31;7285342;19;152144;-49
2021/11/16 02:47:27;;;;;;;;;;;;;;;20.49;56.05;102278.63;7285728;19;151647;-50
2021/11/16 02:49:54;;;;;;;;;;;;;;;20.51;55.86;102285.63;7292637;19;153121;-50
2021/11/16 02:52:21;;;;;;;;;;;;;;;20.47;56.23;102281.69;7287379;19;151584;-49
2021/11/16 02:54:50;;;;;;;;;;;;;;;20.46;56.33;102277.19;7288585;19;152596;-51
2021/11/16 02:57:17;;;;;;;;;;;;;;;20.45;55.91;102285.88;7286606;19;154274;-49
2021/11/16 02:59:45;;;;;;;;;;;;;;;20.44;56.20;102287.00;7287979;19;151774;-49
2021/11/16 03:02:12;;;;;;;;;;;;;;;20.45;56.31;102286.72;7282277;19;152339;-50
2021/11/16 03:04:44;;;;;;;;;;;;;;;20.49;56.08;102282.22;7286507;19;154001;-49
2021/11/16 03:07:14;;;;;;;;;;;;;;;20.47;56.22;102278.03;7285045;19;151830;-49
2021/11/16 03:09:44;;;;;;;;;;;;;;;20.44;55.76;102289.81;7285657;19;153497;-50
2021/11/16 03:12:11;;;;;;;;;;;;;;;20.47;56.19;102280.84;7293253;19;153939;-49
2021/11/16 03:14:38;;;;;;;;;;;;;;;20.46;56.26;102273.53;7287192;19;151812;-49
2021/11/16 03:17:05;;;;;;;;;;;;;;;20.44;56.21;102273.81;7286220;19;153369;-50
2021/11/16 03:19:33;;;;;;;;;;;;;;;20.42;56.38;102268.47;7285132;19;152131;-49
2021/11/16 03:22:00;;;;;;;;;;;;;;;20.43;55.93;102272.13;7285267;19;153412;-48
2021/11/16 03:24:31;;;;;;;;;;;;;;;20.45;55.92;102274.63;7284131;19;153326;-49
2021/11/16 03:27:02;;;;;;;;;;;;;;;20.45;56.07;102266.22;7285252;19;151945;-49
2021/11/16 03:29:31;;;;;;;;;;;;;;;20.42;56.70;102259.22;7286404;19;151923;-48
2021/11/16 03:34:29;;;;;;;;;;;;;;;20.42;56.22;102254.44;7286824;19;154067;-49
2021/11/16 03:36:56;;;;;;;;;;;;;;;20.40;56.48;102255.81;7286759;19;153761;-49
2021/11/16 03:39:24;;;;;;;;;;;;;;;20.40;56.65;102255.81;7286210;19;152316;-49
2021/11/16 03:41:51;;;;;;;;;;;;;;;20.44;56.43;102256.13;7286900;19;152299;-50
2021/11/16 03:44:18;;;;;;;;;;;;;;;20.37;56.77;102250.75;7280380;19;153896;-51
2021/11/16 03:46:45;;;;;;;;;;;;;;;20.37;56.59;102256.38;7285164;19;151855;-49
2021/11/16 03:49:13;;;;;;;;;;;;;;;20.39;56.49;102256.97;7286407;19;153638;-50
2021/11/16 03:51:43;;;;;;;;;;;;;;;20.36;56.63;102249.91;7285485;19;153131;-50
2021/11/16 03:54:11;;;;;;;;;;;;;;;20.38;56.74;102258.06;7293589;19;152269;-49
2021/11/16 03:56:38;;;;;;;;;;;;;;;20.35;56.84;102250.22;7285932;19;153349;-50
2021/11/16 03:59:05;;;;;;;;;;;;;;;20.32;57.17;102248.78;7284297;19;152179;-50
2021/11/16 04:01:34;;;;;;;;;;;;;;;20.30;57.02;102245.44;7282013;19;153031;-50
2021/11/16 04:04:03;;;;;;;;;;;;;;;20.26;57.23;102244.22;7282786;19;153436;-50
2021/11/16 04:06:30;;;;;;;;;;;;;;;20.26;57.52;102246.22;7283933;19;151827;-49
2021/11/16 04:08:58;;;;;;;;;;;;;;;20.25;58.09;102244.53;7285520;19;153509;-49
2021/11/16 04:11:26;;;;;;;;;;;;;;;20.26;58.13;102244.22;7283315;19;153347;-48
2021/11/16 04:13:53;;;;;;;;;;;;;;;20.27;58.18;102229.09;7283709;19;151783;-47
2021/11/16 04:16:22;;;;;;;;;;;;;;;20.25;57.97;102228.53;7292201;19;153387;-47
2021/11/16 04:18:50;;;;;;;;;;;;;;;20.29;58.01;102231.63;7283774;19;152041;-48
2021/11/16 04:21:17;;;;;;;;;;;;;;;20.24;57.97;102226.00;7283501;19;153113;-47
2021/11/16 04:23:44;;;;;;;;;;;;;;;20.25;57.67;102219.25;7280661;19;153191;-48
2021/11/16 04:26:11;;;;;;;;;;;;;;;20.24;57.62;102226.00;7285497;19;151984;-50
2021/11/16 04:28:39;;;;;;;;;;;;;;;20.24;57.56;102217.56;7283140;19;152351;-47
2021/11/16 04:31:06;;;;;;;;;;;;;;;20.23;57.86;102215.88;7282557;19;153628;-49
2021/11/16 04:33:33;;;;;;;;;;;;;;;20.22;57.84;102217.00;7283244;19;151712;-48
2021/11/16 04:36:00;;;;;;;;;;;;;;;20.20;57.45;102213.63;7284759;19;153976;-48
2021/11/16 04:38:27;;;;;;;;;;;;;;;20.21;57.45;102221.78;7288100;19;152879;-48
2021/11/16 04:40:57;;;;;;;;;;;;;;;20.22;57.40;102217.00;7284808;19;152237;-47
2021/11/16 04:43:27;;;;;;;;;;;;;;;20.20;57.83;102222.06;7280312;19;153988;-48
2021/11/16 04:45:57;;;;;;;;;;;;;;;20.19;57.82;102220.34;7285062;19;151818;-48
2021/11/16 04:48:32;;;;;;;;;;;;;;;20.16;57.41;102227.38;7282630;19;153200;-48
2021/11/16 05:03:28;;;;;;;;;;;;;;;20.12;57.91;102206.59;7282124;19;154224;-47
2021/11/16 05:05:55;;;;;;;;;;;;;;;20.13;57.56;102207.41;7284190;19;151738;-48
2021/11/16 05:08:23;;;;;;;;;;;;;;;20.11;57.89;102210.50;7284173;19;152695;-48
2021/11/16 05:10:50;;;;;;;;;;;;;;;20.14;57.35;102218.38;7282811;19;152141;-48
2021/11/16 05:13:17;;;;;;;;;;;;;;;20.16;57.38;102220.91;7281630;19;151935;-47
2021/11/16 05:15:44;;;;;;;;;;;;;;;20.13;57.28;102218.63;7282549;19;153056;-51
2021/11/16 05:18:11;;;;;;;;;;;;;;;20.13;57.67;102218.63;7282498;19;153210;-48
2021/11/16 05:20:38;;;;;;;;;;;;;;;20.12;57.21;102219.78;7283637;19;152352;-48
2021/11/16 05:23:06;;;;;;;;;;;;;;;20.13;57.25;102219.47;7293132;19;152253;-48
2021/11/16 05:25:34;;;;;;;;;;;;;;;20.12;57.56;102222.59;7289574;19;151838;-47
2021/11/16 05:28:02;;;;;;;;;;;;;;;20.10;57.50;102219.19;7290230;19;152961;-47
2021/11/16 05:30:29;;;;;;;;;;;;;;;20.07;57.50;102217.78;7288822;19;153963;-48
2021/11/16 05:32:57;;;;;;;;;;;;;;;20.06;57.54;102223.66;7290131;19;152029;-48
2021/11/16 05:35:24;;;;;;;;;;;;;;;20.07;57.38;102208.53;7290282;19;152636;-47
2021/11/16 05:37:51;;;;;;;;;;;;;;;20.09;57.43;102209.94;7289251;19;153791;-48
2021/11/16 05:40:17;;;;;;;;;;;;;;;20.07;57.39;102203.78;7289701;19;151775;-48
2021/11/16 05:42:44;;;;;;;;;;;;;;;20.05;57.18;102197.56;7296448;19;152571;-47
2021/11/16 05:45:11;;;;;;;;;;;;;;;20.03;57.44;102193.38;7287516;19;151694;-48
2021/11/16 05:47:41;;;;;;;;;;;;;;;20.03;57.19;102202.63;7290048;19;152664;-47
2021/11/16 05:50:09;;;;;;;;;;;;;;;19.99;57.69;102193.06;7288797;19;153681;-48
2021/11/16 05:52:36;;;;;;;;;;;;;;;19.93;57.85;102189.41;7289926;19;151866;-47
2021/11/16 05:55:07;;;;;;;;;;;;;;;19.98;57.70;102186.63;7289499;19;152323;-49
2021/11/16 05:57:35;;;;;;;;;;;;;;;20.02;58.05;102192.53;7288735;19;154300;-48
2021/11/16 06:00:04;;;;;;;;;;;;;;;20.02;58.48;102186.91;7287500;19;152154;-48
2021/11/16 06:02:31;;;;;;;;;;;;;;;20.05;58.59;102189.16;7289581;19;152656;-48
2021/11/16 06:04:58;;;;;;;;;;;;;;;20.09;58.47;102186.63;7294153;19;154152;-47
2021/11/16 06:07:25;;;;;;;;;;;;;;;20.14;58.84;102183.84;7286463;19;153312;-48
2021/11/16 06:09:53;;;;;;;;;;;;;;;20.15;59.01;102186.41;7286618;19;153974;-48
2021/11/16 06:12:20;;;;;;;;;;;;;;;20.19;59.83;102190.34;7289234;19;151861;-48
2021/11/16 06:14:46;;;;;;;;;;;;;;;20.23;59.95;102187.81;7287376;19;152258;-47
2021/11/16 06:17:13;;;;;;;;;;;;;;;20.27;59.65;102189.78;7287744;19;154701;-48
2021/11/16 06:19:40;;;;;;;;;;;;;;;20.32;59.79;102192.66;7289251;19;151809;-48
2021/11/16 06:22:09;;;;;;;;;;;;;;;20.37;59.92;102186.19;7288930;19;153230;-48
2021/11/16 06:24:37;;;;;;;;;;;;;;;20.42;60.28;102186.22;7286584;19;153912;-48
2021/11/16 06:27:05;;;;;;;;;;;;;;;20.47;60.18;102189.03;7296598;19;152604;-48
2021/11/16 06:29:33;;;;;;;;;;;;;;;20.52;59.73;102185.41;7285567;19;154132;-48
2021/11/16 06:32:00;;;;;;;;;;;;;;;20.58;59.60;102189.91;7288748;19;152219;-48
2021/11/16 06:34:27;;;;;;;;;;;;;;;20.63;60.50;102196.34;7285441;19;152025;-49
2021/11/16 06:36:54;;;;;;;;;;;;;;;20.68;59.51;102185.13;7285402;19;152188;-48
2021/11/16 06:39:22;;;;;;;;;;;;;;;20.82;58.65;102191.88;7288908;19;152233;-48
2021/11/16 06:41:49;;;;;;;;;;;;;;;20.82;58.61;102202.28;7285984;19;151948;-49
2021/11/16 06:44:19;;;;;;;;;;;;;;;20.83;57.58;102201.16;7285983;19;153510;-47
2021/11/16 06:46:46;;;;;;;;;;;;;;;20.88;56.68;102208.75;7288283;19;152021;-48
2021/11/16 06:49:13;;;;;;;;;;;;;;;20.91;56.21;102202.56;7293325;19;153505;-48
2021/11/16 06:51:41;;;;;;;;;;;;;;;20.94;55.48;102210.44;7285360;19;152096;-48
2021/11/16 06:54:11;;;;;;;;;;;;;;;20.98;55.57;102209.59;7286065;19;153004;-48
2021/11/16 06:56:38;;;;;;;;;;;;;;;21.02;54.60;102215.50;7285093;19;153868;-48
2021/11/16 06:59:06;;;;;;;;;;;;;;;21.05;54.64;102218.56;7285486;19;151907;-48
2021/11/16 07:01:36;;;;;;;;;;;;;;;21.19;55.26;102222.53;7286551;19;152653;-47
2021/11/16 07:04:09;;;;;;;;;;;;;;;21.25;55.41;102212.16;7284066;19;153537;-48
2021/11/16 07:06:37;;;;;;;;;;;;;;;21.04;47.39;102219.69;7286184;19;151647;-49
2021/11/16 07:09:05;;;;;;;;;;;;;;;21.08;50.71;102203.94;7287273;19;153413;-48
2021/11/16 07:11:32;;;;;;;;;;;;;;;21.15;49.59;102207.38;7294050;19;152484;-49
2021/11/16 07:14:00;;;;;;;;;;;;;;;21.19;50.24;102207.63;7287994;19;153528;-49
2021/11/16 07:16:29;;;;;;;;;;;;;;;21.23;50.71;102211.56;7284643;19;153993;-48
2021/11/16 07:18:57;;;;;;;;;;;;;;;21.26;50.44;102211.00;7287555;19;152062;-49
2021/11/16 07:21:25;;;;;;;;;;;;;;;21.28;50.59;102212.41;7285617;19;151835;-48
2021/11/16 07:23:55;;;;;;;;;;;;;;;21.32;50.45;102212.69;7285363;19;154124;-47
2021/11/16 07:26:22;;;;;;;;;;;;;;;21.36;50.63;102216.63;7284892;19;152562;-48
2021/11/16 07:28:50;;;;;;;;;;;;;;;21.39;50.55;102215.22;7287150;19;153354;-49
2021/11/16 07:31:19;;;;;;;;;;;;;;;21.41;50.79;102216.59;7286248;19;154660;-48
2021/11/16 07:33:46;;;;;;;;;;;;;;;21.44;50.65;102212.41;7292790;19;152208;-48
2021/11/16 07:36:16;;;;;;;;;;;;;;;21.45;50.54;102214.91;7286351;19;153789;-49
2021/11/16 07:38:46;;;;;;;;;;;;;;;21.49;50.12;102218.00;7286229;19;151771;-48
2021/11/16 07:41:19;;;;;;;;;;;;;;;21.52;50.56;102206.19;7286550;19;151717;-48
2021/11/16 07:43:46;;;;;;;;;;;;;;;21.55;50.28;102205.63;7283384;19;154217;-48
2021/11/16 07:46:13;;;;;;;;;;;;;;;21.58;50.18;102200.25;7284413;19;151781;-49
2021/11/16 07:48:41;;;;;;;;;;;;;;;21.61;50.28;102196.03;7286723;19;152846;-48
2021/11/16 07:51:12;;;;;;;;;;;;;;;21.62;49.75;102198.56;7283739;19;154866;-49
2021/11/16 07:53:43;;;;;;;;;;;;;;;21.63;50.14;102197.44;7291932;19;152282;-49
2021/11/16 07:56:12;;;;;;;;;;;;;;;21.65;49.79;102189.56;7283107;19;154080;-48
2021/11/16 07:58:41;;;;;;;;;;;;;;;21.66;49.76;102190.41;7283933;19;151543;-48
2021/11/16 08:01:10;;;;;;;;;;;;;;;21.67;49.33;102192.06;7284206;19;153361;-48
2021/11/16 08:08:54;;;;;;;;;;;;;;;21.67;49.02;102187.28;7281856;19;153478;-48
2021/11/16 08:13:53;;;;;;;;;;;;;;;21.68;48.81;102182.50;7280761;19;151998;-47
2021/11/16 08:16:21;;;;;;;;;;;;;;;21.69;49.05;102187.00;7289370;19;153103;-48
2021/11/16 08:18:49;;;;;;;;;;;;;;;21.68;48.73;102180.53;7280359;19;152665;-48
2021/11/16 08:21:17;;;;;;;;;;;;;;;21.70;48.66;102185.91;7282977;19;154168;-47
2021/11/16 08:23:45;;;;;;;;;;;;;;;21.67;48.68;102189.25;7279661;19;153865;-47
2021/11/16 08:26:12;;;;;;;;;;;;;;;21.70;48.59;102177.44;7279556;19;152025;-48
2021/11/16 08:28:39;;;;;;;;;;;;;;;21.73;49.27;102191.78;7283250;19;153624;-48
2021/11/16 08:31:09;;;;;;;;;;;;;;;21.69;49.09;102182.22;7281152;19;156747;-47
2021/11/16 08:33:36;;;;;;;;;;;;;;;21.70;48.95;102183.09;7279836;19;152062;-48
2021/11/16 08:36:04;;;;;;;;;;;;;;;21.68;48.91;102188.13;7283152;19;153081;-48
2021/11/16 08:38:32;;;;;;;;;;;;;;;21.64;48.71;102189.84;7287396;19;153633;-48
2021/11/16 08:40:59;;;;;;;;;;;;;;;21.64;48.34;102190.69;7281587;19;152148;-48
2021/11/16 08:43:35;;;;;;;;;;;;;;;21.68;48.77;102179.69;7281331;19;154492;-48
2021/11/16 08:46:04;;;;;;;;;;;;;;;21.66;49.03;102184.78;7282797;19;152003;-48
2021/11/16 08:48:32;;;;;;;;;;;;;;;21.63;48.91;102180.56;7283236;19;153476;-48
2021/11/16 08:51:02;;;;;;;;;;;;;;;21.57;48.29;102178.91;7283165;19;154128;-49
2021/11/16 08:53:33;;;;;;;;;;;;;;;21.54;48.24;102182.28;7282950;19;152581;-48
2021/11/16 08:56:05;;;;;;;;;;;;;;;21.52;47.91;102181.72;7284158;19;153438;-49
2021/11/16 08:58:32;;;;;;;;;;;;;;;21.51;47.90;102182.00;7280111;19;153820;-49
2021/11/16 09:01:02;;;;;;;;;;;;;;;21.50;48.00;102174.69;7290637;19;152283;-48
2021/11/16 09:03:30;;;;;;;;;;;;;;;21.48;48.11;102175.00;7281949;19;153523;-48
2021/11/16 09:05:59;;;;;;;;;;;;;;;21.46;47.69;102180.03;7279976;19;152603;-48
2021/11/16 09:08:29;;;;;;;;;;;;;;;21.46;47.83;102182.00;7282670;19;152902;-48
2021/11/16 09:10:59;;;;;;;;;;;;;;;21.44;47.97;102179.47;7283147;19;153792;-47
2021/11/16 09:13:28;;;;;;;;;;;;;;;21.43;47.50;102186.25;7283310;19;151961;-48
2021/11/16 09:15:56;;;;;;;;;;;;;;;21.41;47.86;102182.88;7282346;19;153188;-49
2021/11/16 09:18:28;;;;;;;;;;;;;;;21.41;47.30;102184.84;7281189;19;153510;-48
2021/11/16 09:20:56;;;;;;;;;;;;;;;21.37;47.29;102173.31;7284342;19;151613;-48
2021/11/16 09:23:25;;;;;;;;;;;;;;;21.37;47.55;102161.22;7290060;19;152618;-47
2021/11/16 09:26:04;;;;;;;;;;;;;;;21.36;47.40;102167.97;7279764;19;151793;-47
2021/11/16 09:28:34;;;;;;;;;;;;;;;21.33;47.38;102160.97;7283361;19;153432;-48
2021/11/16 09:31:16;;;;;;;;;;;;;;;21.33;47.78;102158.16;7280608;19;153723;-49
2021/11/16 09:33:43;;;;;;;;;;;;;;;21.33;47.54;102160.13;7281203;19;151743;-48
2021/11/16 09:36:18;;;;;;;;;;;;;;;21.33;47.40;102158.16;7281020;19;152094;-48
2021/11/16 09:38:50;;;;;;;;;;;;;;;21.33;47.32;102162.94;7281867;19;154052;-48
2021/11/16 09:41:20;;;;;;;;;;;;;;;21.32;47.58;102152.81;7280902;19;151638;-48
2021/11/16 09:43:54;;;;;;;;;;;;;;;21.28;47.15;102156.19;7281399;19;151914;-48
2021/11/16 09:46:21;;;;;;;;;;;;;;;21.26;47.09;102157.59;7285189;19;152398;-48
2021/11/16 09:48:55;;;;;;;;;;;;;;;21.23;47.72;102147.75;7282341;19;153804;-48
2021/11/16 09:51:22;;;;;;;;;;;;;;;21.23;47.32;102149.72;7282057;19;153955;-48
2021/11/16 09:53:58;;;;;;;;;;;;;;;21.20;47.36;102151.16;7283799;19;152061;-49
2021/11/16 09:56:25;;;;;;;;;;;;;;;21.23;47.33;102150.56;7281135;19;153319;-49
2021/11/16 09:58:52;;;;;;;;;;;;;;;21.20;47.21;102144.69;7281698;19;154128;-48
2021/11/16 10:01:23;;;;;;;;;;;;;;;21.15;47.09;102145.53;7278882;19;152455;-47
2021/11/16 10:04:04;;;;;;;;;;;;;;;21.12;47.48;102136.81;7282510;19;153183;-48
2021/11/16 10:06:31;;;;;;;;;;;;;;;21.10;47.48;102139.88;7284598;19;153708;-47
2021/11/16 10:08:58;;;;;;;;;;;;;;;21.07;47.38;102142.44;7285492;19;152369;-48
2021/11/16 10:11:26;;;;;;;;;;;;;;;21.03;47.64;102136.50;7288178;19;154379;-48
2021/11/16 10:13:53;;;;;;;;;;;;;;;21.01;47.49;102138.78;7289363;19;151878;-48
2021/11/16 10:16:20;;;;;;;;;;;;;;;21.02;47.28;102129.22;7289071;19;152108;-47
2021/11/16 10:18:47;;;;;;;;;;;;;;;20.95;47.63;102128.66;7287508;19;152228;-48
2021/11/16 10:21:15;;;;;;;;;;;;;;;20.95;47.77;102128.66;7289148;19;152369;-47
2021/11/16 10:23:45;;;;;;;;;;;;;;;20.92;47.67;102118.00;7287036;19;153355;-48
2021/11/16 10:26:13;;;;;;;;;;;;;;;20.92;47.60;102125.56;7284166;19;154062;-48
2021/11/16 10:28:42;;;;;;;;;;;;;;;20.88;47.74;102127.28;7294240;19;151929;-49
2021/11/16 10:31:10;;;;;;;;;;;;;;;20.89;47.51;102110.16;7287462;19;154138;-50
2021/11/16 10:33:39;;;;;;;;;;;;;;;20.88;47.51;102102.00;7287196;19;152088;-49
2021/11/16 10:36:08;;;;;;;;;;;;;;;20.85;47.75;102101.41;7286625;19;153304;-50
2021/11/16 10:38:37;;;;;;;;;;;;;;;20.82;47.79;102110.41;7285569;19;153548;-49
2021/11/16 10:41:05;;;;;;;;;;;;;;;20.82;47.44;102099.19;7288930;19;152133;-50
2021/11/16 10:43:35;;;;;;;;;;;;;;;20.82;47.63;102098.34;7288289;19;153386;-49
2021/11/16 10:46:04;;;;;;;;;;;;;;;20.80;47.46;102095.78;7286528;19;153781;-49
2021/11/16 10:48:32;;;;;;;;;;;;;;;20.79;47.86;102094.13;7287703;19;151965;-49
2021/11/16 10:51:04;;;;;;;;;;;;;;;20.83;47.67;102089.63;7294686;19;153283;-50
2021/11/16 10:53:31;;;;;;;;;;;;;;;20.83;47.67;102086.81;7287582;19;152001;-50
2021/11/16 10:55:59;;;;;;;;;;;;;;;20.86;48.13;102091.03;7286131;19;152986;-50
2021/11/16 10:58:32;;;;;;;;;;;;;;;20.84;47.71;102082.91;7284604;19;153225;-49
2021/11/16 11:01:04;;;;;;;;;;;;;;;20.82;48.15;102085.13;7284703;19;151874;-50
2021/11/16 11:03:34;;;;;;;;;;;;;;;20.83;47.17;102092.44;7285924;19;152891;-49
2021/11/16 11:06:05;;;;;;;;;;;;;;;20.83;47.87;102094.41;7285505;19;153570;-49
2021/11/16 11:08:35;;;;;;;;;;;;;;;20.76;47.81;102079.78;7287499;19;152013;-49
2021/11/16 11:11:05;;;;;;;;;;;;;;;20.75;48.04;102073.38;7287564;19;153868;-51
2021/11/16 11:13:34;;;;;;;;;;;;;;;20.78;48.10;102071.94;7291636;19;154023;-50
2021/11/16 11:16:11;;;;;;;;;;;;;;;20.83;48.28;102072.78;7286056;19;153207;-49
2021/11/16 11:18:40;;;;;;;;;;;;;;;20.83;47.87;102071.94;7285646;19;152154;-49
2021/11/16 11:21:09;;;;;;;;;;;;;;;20.81;48.30;102058.16;7285836;19;152357;-50
2021/11/16 11:26:13;;;;;;;;;;;;;;;20.74;47.37;102051.16;7284329;19;154241;-50
2021/11/16 11:28:42;;;;;;;;;;;;;;;20.71;47.77;102057.34;7286915;19;151554;-49
2021/11/16 11:31:12;;;;;;;;;;;;;;;20.70;47.88;102052.84;7286688;19;153453;-50
2021/11/16 11:33:47;;;;;;;;;;;;;;;20.75;47.51;102039.66;7285258;19;153271;-49
2021/11/16 11:36:17;;;;;;;;;;;;;;;20.78;47.27;102041.03;7295446;19;152018;-48
2021/11/16 11:38:44;;;;;;;;;;;;;;;20.79;47.86;102035.16;7285714;19;154905;-49
2021/11/16 11:41:12;;;;;;;;;;;;;;;20.82;47.99;102026.16;7283559;19;152346;-50
2021/11/16 11:43:39;;;;;;;;;;;;;;;20.85;47.53;102033.16;7285311;19;153186;-49
2021/11/16 11:46:07;;;;;;;;;;;;;;;20.91;47.67;102025.56;7283720;19;154103;-50
2021/11/16 11:48:34;;;;;;;;;;;;;;;20.96;48.10;102029.19;7284262;19;152015;-50
2021/11/16 11:51:04;;;;;;;;;;;;;;;21.00;47.92;102026.66;7287418;19;152834;-49
2021/11/16 11:53:32;;;;;;;;;;;;;;;21.01;47.99;102031.16;7285692;19;153397;-50
2021/11/16 11:56:02;;;;;;;;;;;;;;;21.05;48.03;102026.66;7294425;19;152318;-49
2021/11/16 11:58:31;;;;;;;;;;;;;;;21.08;47.91;102017.63;7285439;19;154387;-49
2021/11/16 12:01:00;;;;;;;;;;;;;;;21.11;48.16;102017.09;7285079;19;152418;-49
2021/11/16 12:03:28;;;;;;;;;;;;;;;21.14;47.90;102019.34;7286048;19;153216;-50
2021/11/16 12:05:56;;;;;;;;;;;;;;;21.17;47.90;102018.75;7282399;19;153480;-50
2021/11/16 12:08:24;;;;;;;;;;;;;;;21.20;47.89;102009.78;7283909;19;151803;-50
2021/11/16 12:10:51;;;;;;;;;;;;;;;21.23;47.50;102010.03;7285805;19;151924;-49
2021/11/16 12:13:20;;;;;;;;;;;;;;;21.26;47.88;102009.44;7284764;19;153359;-49
2021/11/16 12:15:50;;;;;;;;;;;;;;;21.30;47.88;102002.13;7284425;19;151927;-49
2021/11/16 12:18:17;;;;;;;;;;;;;;;21.34;47.40;102002.41;7291679;19;152675;-49
2021/11/16 12:20:49;;;;;;;;;;;;;;;21.36;47.61;101994.50;7286063;19;151765;-50
2021/11/16 12:23:17;;;;;;;;;;;;;;;21.39;47.02;101988.31;7283718;19;152797;-50
2021/11/16 12:25:45;;;;;;;;;;;;;;;21.41;47.50;101991.69;7283066;19;153256;-50
2021/11/16 12:28:20;;;;;;;;;;;;;;;21.45;47.00;101997.56;7286116;19;152001;-49
2021/11/16 12:30:48;;;;;;;;;;;;;;;21.47;47.31;101990.53;7283856;19;153264;-51
2021/11/16 12:33:18;;;;;;;;;;;;;;;21.50;47.24;101980.66;7282731;19;153763;-49
2021/11/16 12:35:47;;;;;;;;;;;;;;;21.51;46.84;101979.53;7282297;19;152446;-50
2021/11/16 12:38:15;;;;;;;;;;;;;;;21.53;47.29;101982.91;7283360;19;151813;-49
2021/11/16 12:40:43;;;;;;;;;;;;;;;21.52;46.84;101976.44;7290001;19;153362;-49
2021/11/16 12:43:13;;;;;;;;;;;;;;;21.53;47.13;101972.47;7285288;19;153051;-50
2021/11/16 12:45:43;;;;;;;;;;;;;;;21.55;47.03;101975.00;7283465;19;154166;-50
2021/11/16 12:48:12;;;;;;;;;;;;;;;21.55;46.84;101969.38;7282801;19;152444;-50
2021/11/16 12:50:59;;;;;;;;;;;;;;;21.57;46.30;101967.13;7285315;19;152663;-51
2021/11/16 12:53:29;;;;;;;;;;;;;;;21.59;46.82;101968.50;7281872;19;152389;-50
2021/11/16 12:55:56;;;;;;;;;;;;;;;21.59;46.32;101953.59;7283593;19;151819;-50
2021/11/16 12:58:23;;;;;;;;;;;;;;;21.60;46.55;101958.09;7281954;19;152032;-50
2021/11/16 13:00:52;;;;;;;;;;;;;;;21.61;46.43;101942.91;7279952;19;153804;-50